Time;durP1;ratioP1;P1;durP2;ratioP2;P2;SDS_P1;SDS_P2;PMS_P1;PMS_P2;Temp;Humidity;BMP_temperature;BMP_pressure;BME280_temperature;BME280_humidity;BME280_pressure;Samples;Min_cycle;Max_cycle;Signal;HPM_P1;HPM_P2
2023/12/14 00:02:24;;;;;;;48.58;23.05;;;6.50;99.90;;;;;;5052708;28;20039;-80
2023/12/14 00:04:50;;;;;;;55.80;25.33;;;6.50;99.90;;;;;;5101330;28;20020;-88
2023/12/14 00:07:17;;;;;;;55.25;24.90;;;6.50;99.90;;;;;;5101908;28;20031;-87
2023/12/14 00:09:43;;;;;;;56.20;26.52;;;6.50;99.90;;;;;;5085619;28;20023;-86
2023/12/14 00:12:09;;;;;;;49.65;24.65;;;6.40;99.90;;;;;;5067460;28;20035;-86
2023/12/14 00:14:36;;;;;;;51.45;23.33;;;6.40;99.90;;;;;;5064744;28;20031;-87
2023/12/14 00:17:02;;;;;;;57.65;26.73;;;6.40;99.90;;;;;;5065141;28;20634;-88
2023/12/14 00:19:28;;;;;;;57.58;26.92;;;6.40;99.90;;;;;;5082314;28;20038;-87
2023/12/14 00:21:55;;;;;;;48.53;24.20;;;6.30;99.90;;;;;;5081910;28;20043;-89
2023/12/14 00:24:21;;;;;;;54.80;25.35;;;6.30;99.90;;;;;;5049651;28;20047;-84
2023/12/14 00:26:47;;;;;;;54.47;24.45;;;6.30;99.90;;;;;;5066957;28;20042;-87
2023/12/14 00:29:14;;;;;;;52.42;24.75;;;6.30;99.90;;;;;;5088012;28;20032;-88
2023/12/14 00:31:40;;;;;;;58.05;25.38;;;6.30;99.90;;;;;;5104595;27;20036;-82
2023/12/14 00:34:07;;;;;;;60.58;26.15;;;6.30;99.90;;;;;;5053095;28;20046;-84
2023/12/14 00:36:33;;;;;;;55.53;25.27;;;6.20;99.90;;;;;;5089500;28;20040;-86
2023/12/14 00:38:59;;;;;;;62.75;26.77;;;6.20;99.90;;;;;;5056978;27;20042;-89
2023/12/14 00:41:26;;;;;;;53.75;25.42;;;6.20;99.90;;;;;;5119439;27;20039;-89
2023/12/14 00:43:52;;;;;;;63.63;27.27;;;6.20;99.90;;;;;;5056230;27;20035;-86
2023/12/14 00:46:19;;;;;;;48.13;21.67;;;6.10;99.90;;;;;;5107388;27;20020;-84
2023/12/14 00:48:45;;;;;;;51.00;22.10;;;6.10;99.90;;;;;;5105396;27;20043;-79
2023/12/14 00:51:12;;;;;;;57.00;22.98;;;6.20;99.90;;;;;;5087119;28;20469;-86
2023/12/14 00:53:38;;;;;;;60.40;27.98;;;6.20;99.90;;;;;;5105365;27;20027;-89
2023/12/14 00:56:06;;;;;;;62.95;31.30;;;6.20;99.90;;;;;;5071189;28;20027;-87
2023/12/14 00:58:33;;;;;;;57.08;27.30;;;6.20;99.90;;;;;;5084366;27;20043;-84
2023/12/14 01:00:59;;;;;;;57.63;24.63;;;6.10;99.90;;;;;;5052246;28;20050;-86
2023/12/14 01:03:25;;;;;;;54.03;26.00;;;6.10;99.90;;;;;;5068787;28;20050;-84
2023/12/14 01:05:52;;;;;;;57.10;27.27;;;6.10;99.90;;;;;;5069770;28;20401;-86
2023/12/14 01:08:18;;;;;;;56.95;26.75;;;6.10;99.90;;;;;;5085792;27;20050;-81
2023/12/14 01:10:45;;;;;;;51.92;27.55;;;6.10;99.90;;;;;;5068991;28;20263;-83
2023/12/14 01:13:11;;;;;;;49.50;24.60;;;6.00;99.90;;;;;;5052162;28;20034;-86
2023/12/14 01:15:37;;;;;;;50.13;24.80;;;6.00;99.90;;;;;;5104998;27;20478;-89
2023/12/14 01:18:04;;;;;;;52.28;23.80;;;6.00;99.90;;;;;;5086949;28;20031;-82
2023/12/14 01:20:30;;;;;;;44.33;20.48;;;6.00;99.90;;;;;;5070222;28;20027;-83
2023/12/14 01:22:56;;;;;;;51.75;24.50;;;6.00;99.90;;;;;;5071102;28;20035;-87
2023/12/14 01:25:23;;;;;;;50.38;24.98;;;6.00;99.90;;;;;;5084440;27;20035;-87
2023/12/14 01:27:49;;;;;;;52.58;25.42;;;6.00;99.90;;;;;;5067544;27;20059;-86
2023/12/14 01:30:15;;;;;;;45.28;22.30;;;6.00;99.90;;;;;;5083219;27;20035;-86
2023/12/14 01:32:42;;;;;;;42.13;21.02;;;6.00;99.90;;;;;;5055785;27;20032;-87
2023/12/14 01:35:08;;;;;;;42.83;21.77;;;6.00;99.90;;;;;;5099339;27;20027;-87
2023/12/14 01:37:34;;;;;;;43.95;21.80;;;6.00;99.90;;;;;;5099016;27;20038;-89
2023/12/14 01:40:01;;;;;;;50.03;25.65;;;6.00;99.90;;;;;;5102015;27;20401;-82
2023/12/14 01:42:27;;;;;;;49.35;25.40;;;6.00;99.90;;;;;;5068531;27;20074;-86
2023/12/14 01:44:54;;;;;;;46.83;24.80;;;6.00;99.90;;;;;;5067396;28;20082;-84
2023/12/14 01:47:20;;;;;;;45.28;24.63;;;6.00;99.90;;;;;;5066860;28;20396;-79
2023/12/14 01:49:46;;;;;;;46.17;25.77;;;6.00;99.90;;;;;;5100102;28;20039;-83
2023/12/14 01:52:13;;;;;;;47.88;25.00;;;6.00;99.90;;;;;;5050703;28;20166;-87
2023/12/14 01:54:39;;;;;;;51.30;25.83;;;6.00;99.90;;;;;;5051077;27;20047;-83
2023/12/14 01:57:05;;;;;;;49.40;26.77;;;6.00;99.90;;;;;;5101357;27;20514;-88
2023/12/14 01:59:32;;;;;;;49.95;26.15;;;6.00;99.90;;;;;;5081414;28;20036;-83
2023/12/14 02:01:59;;;;;;;54.67;25.40;;;5.90;99.90;;;;;;5080693;28;20061;-85
2023/12/14 02:04:26;;;;;;;46.20;24.52;;;5.90;99.90;;;;;;5081574;28;20039;-87
2023/12/14 02:06:52;;;;;;;46.55;25.60;;;6.00;99.90;;;;;;5081127;28;21176;-86
2023/12/14 02:09:19;;;;;;;45.92;24.02;;;6.00;99.90;;;;;;5074618;28;20040;-86
2023/12/14 02:11:45;;;;;;;47.13;23.55;;;6.00;99.90;;;;;;5116465;27;20385;-86
2023/12/14 02:14:12;;;;;;;40.97;20.98;;;6.00;99.90;;;;;;5068482;28;20053;-91
2023/12/14 02:16:38;;;;;;;45.10;22.35;;;6.00;99.90;;;;;;5052958;28;20047;-90
2023/12/14 02:19:05;;;;;;;44.30;24.45;;;6.00;99.90;;;;;;5074151;27;20036;-91
2023/12/14 02:21:32;;;;;;;43.35;21.75;;;6.00;99.90;;;;;;5082807;28;20043;-86
2023/12/14 02:23:58;;;;;;;40.22;21.75;;;6.00;99.90;;;;;;5083769;28;20038;-90
2023/12/14 02:26:24;;;;;;;41.30;20.90;;;6.00;99.90;;;;;;5087291;27;20035;-88
2023/12/14 02:28:51;;;;;;;37.42;19.73;;;6.00;99.90;;;;;;5084248;28;20394;-89
2023/12/14 02:31:19;;;;;;;42.47;22.17;;;6.00;99.90;;;;;;5085108;28;20167;-90
2023/12/14 02:33:45;;;;;;;42.25;22.40;;;6.00;99.90;;;;;;5085805;28;20490;-85
2023/12/14 02:36:11;;;;;;;44.80;23.27;;;6.00;99.90;;;;;;5071255;27;20035;-88
2023/12/14 02:38:38;;;;;;;44.92;21.08;;;6.00;99.90;;;;;;5082397;28;20039;-86
2023/12/14 02:41:04;;;;;;;48.45;24.55;;;6.10;99.90;;;;;;5086714;27;20038;-81
2023/12/14 02:43:30;;;;;;;49.50;24.27;;;6.00;99.90;;;;;;5084485;28;20367;-87
2023/12/14 02:46:01;;;;;;;41.58;22.02;;;6.00;99.90;;;;;;5070801;28;20028;-89
2023/12/14 02:48:31;;;;;;;41.72;21.65;;;6.00;99.90;;;;;;5100728;27;20039;-87
2023/12/14 02:51:00;;;;;;;46.38;25.23;;;6.00;99.90;;;;;;5084162;27;20388;-88
2023/12/14 02:53:26;;;;;;;44.85;22.95;;;6.00;99.90;;;;;;5084351;27;20032;-87
2023/12/14 02:55:52;;;;;;;46.53;24.35;;;5.90;99.90;;;;;;5052224;28;20036;-86
2023/12/14 02:58:19;;;;;;;43.42;21.60;;;5.90;99.90;;;;;;5115881;27;20028;-87
2023/12/14 03:00:45;;;;;;;39.67;23.00;;;5.90;99.90;;;;;;5083216;27;20028;-87
2023/12/14 03:03:11;;;;;;;38.42;21.83;;;5.90;99.90;;;;;;5064801;27;20048;-85
2023/12/14 03:05:38;;;;;;;43.58;23.60;;;5.90;99.90;;;;;;5082081;28;20027;-78
2023/12/14 03:08:04;;;;;;;37.85;21.13;;;5.90;99.90;;;;;;5066853;28;20032;-87
2023/12/14 03:10:31;;;;;;;37.97;20.45;;;5.90;99.90;;;;;;5082866;28;20035;-86
2023/12/14 03:12:57;;;;;;;36.00;19.17;;;5.90;99.90;;;;;;5079223;28;20036;-89
2023/12/14 03:15:24;;;;;;;41.90;21.40;;;5.90;99.90;;;;;;5070017;28;20027;-90
2023/12/14 03:17:50;;;;;;;36.17;19.75;;;5.90;99.90;;;;;;5065792;28;20047;-77
2023/12/14 03:20:16;;;;;;;41.40;21.52;;;5.90;99.90;;;;;;5067269;28;20583;-87
2023/12/14 03:22:42;;;;;;;42.10;22.08;;;5.90;99.90;;;;;;5065892;28;20198;-82
2023/12/14 03:25:12;;;;;;;36.40;19.63;;;5.90;99.90;;;;;;5083429;27;20484;-86
2023/12/14 03:27:38;;;;;;;41.00;21.95;;;5.90;99.90;;;;;;5100515;27;20348;-84
2023/12/14 03:30:07;;;;;;;37.33;21.02;;;5.90;99.90;;;;;;5084185;27;20357;-82
2023/12/14 03:32:34;;;;;;;42.83;21.45;;;5.90;99.90;;;;;;5067203;27;20039;-86
2023/12/14 03:35:00;;;;;;;37.92;19.80;;;5.90;99.90;;;;;;5065734;28;20039;-82
2023/12/14 03:37:27;;;;;;;40.50;22.33;;;5.90;99.90;;;;;;5080296;28;20031;-84
2023/12/14 03:39:53;;;;;;;42.95;23.20;;;5.90;99.90;;;;;;5098542;27;20035;-85
2023/12/14 03:42:19;;;;;;;39.35;22.23;;;5.90;99.90;;;;;;5078823;27;20036;-85
2023/12/14 03:44:45;;;;;;;36.03;21.77;;;5.80;99.90;;;;;;5082392;28;20039;-83
2023/12/14 03:47:12;;;;;;;34.17;23.02;;;5.80;99.90;;;;;;5083308;28;20042;-85
2023/12/14 03:49:38;;;;;;;33.97;20.67;;;5.90;99.90;;;;;;5085464;27;20027;-85
2023/12/14 03:52:05;;;;;;;34.08;19.73;;;5.80;99.90;;;;;;5050244;28;20498;-84
2023/12/14 03:54:31;;;;;;;30.85;18.08;;;5.80;99.90;;;;;;5081792;28;20032;-85
2023/12/14 03:56:57;;;;;;;31.83;17.70;;;5.80;99.90;;;;;;5098239;28;20062;-84
2023/12/14 03:59:24;;;;;;;36.58;20.35;;;5.80;99.90;;;;;;5080224;28;20035;-85
2023/12/14 04:01:50;;;;;;;38.42;21.52;;;5.80;99.90;;;;;;5082388;28;20043;-83
2023/12/14 04:04:16;;;;;;;39.22;22.05;;;5.80;99.90;;;;;;5067567;28;20039;-86
2023/12/14 04:06:43;;;;;;;33.67;20.73;;;5.80;99.90;;;;;;5078708;28;20208;-87
2023/12/14 04:09:10;;;;;;;37.42;23.23;;;5.80;99.90;;;;;;5064657;28;20031;-87
2023/12/14 04:11:36;;;;;;;37.92;21.60;;;5.80;99.90;;;;;;5084150;28;20363;-79
2023/12/14 04:14:02;;;;;;;36.40;21.92;;;5.70;99.90;;;;;;5099666;28;20036;-81
2023/12/14 04:16:29;;;;;;;36.58;21.98;;;5.70;99.90;;;;;;5065673;28;20040;-82
2023/12/14 04:18:56;;;;;;;36.47;21.65;;;5.70;99.90;;;;;;5064597;28;20425;-82
2023/12/14 04:21:23;;;;;;;33.38;20.40;;;5.70;99.90;;;;;;5096759;28;20465;-85
2023/12/14 04:23:49;;;;;;;33.38;20.65;;;5.70;99.90;;;;;;5079864;28;20046;-83
2023/12/14 04:26:15;;;;;;;30.73;18.15;;;5.70;99.90;;;;;;5067979;28;20035;-84
2023/12/14 04:28:44;;;;;;;29.98;19.00;;;5.80;99.90;;;;;;5066371;28;20931;-84
2023/12/14 04:31:11;;;;;;;32.00;20.38;;;5.80;99.90;;;;;;5065826;28;20554;-83
2023/12/14 04:33:37;;;;;;;37.15;22.88;;;5.80;99.90;;;;;;5069451;28;20058;-86
2023/12/14 04:36:04;;;;;;;37.63;21.20;;;5.80;99.90;;;;;;5067265;28;20047;-86
2023/12/14 04:38:30;;;;;;;34.50;20.65;;;5.80;99.90;;;;;;5087542;28;20036;-81
2023/12/14 04:40:56;;;;;;;33.67;20.15;;;5.80;99.90;;;;;;5081431;28;20032;-82
2023/12/14 04:43:23;;;;;;;34.28;19.75;;;5.80;99.90;;;;;;5067411;28;20043;-86
2023/12/14 04:45:49;;;;;;;34.75;18.90;;;5.80;99.90;;;;;;5079116;28;20036;-84
2023/12/14 04:48:15;;;;;;;39.55;23.15;;;5.80;99.90;;;;;;5060592;28;20047;-83
2023/12/14 04:50:41;;;;;;;43.50;23.30;;;5.80;99.90;;;;;;5092176;28;20035;-80
2023/12/14 04:53:08;;;;;;;37.38;20.17;;;5.80;99.90;;;;;;5075058;28;20074;-78
2023/12/14 04:55:34;;;;;;;35.13;18.95;;;5.80;99.90;;;;;;5061487;28;20039;-81
2023/12/14 04:58:01;;;;;;;37.70;20.60;;;5.80;99.90;;;;;;5073955;28;20537;-81
2023/12/14 05:00:27;;;;;;;34.95;20.00;;;5.80;99.90;;;;;;5061177;28;20050;-82
2023/12/14 05:02:53;;;;;;;36.58;19.92;;;5.80;99.90;;;;;;5076036;28;20039;-81
2023/12/14 05:05:20;;;;;;;35.85;18.95;;;5.80;99.90;;;;;;5094782;28;20042;-82
2023/12/14 05:07:46;;;;;;;46.55;25.58;;;5.80;99.90;;;;;;5076163;28;20042;-81
2023/12/14 05:10:12;;;;;;;41.05;23.25;;;5.80;99.90;;;;;;5061986;28;20044;-81
2023/12/14 05:12:39;;;;;;;35.67;20.98;;;5.80;99.90;;;;;;5078513;28;20306;-78
2023/12/14 05:15:06;;;;;;;36.00;18.85;;;5.80;99.90;;;;;;5065425;27;20034;-81
2023/12/14 05:17:32;;;;;;;39.72;21.75;;;5.80;99.90;;;;;;5065937;28;20370;-80
2023/12/14 05:19:59;;;;;;;37.17;20.45;;;5.80;99.90;;;;;;5078223;27;20521;-77
2023/12/14 05:22:25;;;;;;;32.92;18.70;;;5.80;99.90;;;;;;5046971;27;20479;-81
2023/12/14 05:24:52;;;;;;;33.63;17.90;;;5.80;99.90;;;;;;5073139;27;20035;-82
2023/12/14 05:27:18;;;;;;;36.08;18.77;;;5.80;99.90;;;;;;5065416;28;20039;-79
2023/12/14 05:29:44;;;;;;;31.73;18.13;;;5.80;99.90;;;;;;5064161;28;20402;-79
2023/12/14 05:32:10;;;;;;;37.22;19.38;;;5.80;99.90;;;;;;5100627;27;20038;-79
2023/12/14 05:34:37;;;;;;;30.70;18.02;;;5.80;99.90;;;;;;5078526;28;20032;-81
2023/12/14 05:37:03;;;;;;;39.22;20.08;;;5.80;99.90;;;;;;5072107;27;20071;-82
2023/12/14 05:39:29;;;;;;;30.85;17.48;;;5.80;99.90;;;;;;5061868;27;20058;-81
2023/12/14 05:41:56;;;;;;;33.58;19.05;;;5.70;99.90;;;;;;5063481;28;20043;-85
2023/12/14 05:44:22;;;;;;;32.03;18.30;;;5.70;99.90;;;;;;5077612;27;20039;-83
2023/12/14 05:46:49;;;;;;;31.25;17.58;;;5.70;99.90;;;;;;5063461;28;20405;-78
2023/12/14 05:49:15;;;;;;;34.60;19.15;;;5.70;99.90;;;;;;5079309;28;20036;-78
2023/12/14 05:51:42;;;;;;;28.45;16.73;;;5.70;99.90;;;;;;5080273;28;20031;-79
2023/12/14 05:54:08;;;;;;;30.05;17.83;;;5.70;99.90;;;;;;5096975;27;20031;-84
2023/12/14 05:56:34;;;;;;;31.55;18.42;;;5.70;99.90;;;;;;5064845;28;20047;-79
2023/12/14 05:59:01;;;;;;;30.98;18.92;;;5.70;99.90;;;;;;5099118;27;20027;-80
2023/12/14 06:01:27;;;;;;;29.90;17.67;;;5.70;99.90;;;;;;5079307;28;20384;-80
2023/12/14 06:03:54;;;;;;;31.45;18.27;;;5.70;99.90;;;;;;5078734;27;20050;-80
2023/12/14 06:06:20;;;;;;;29.65;16.13;;;5.70;99.90;;;;;;5046516;28;20039;-83
2023/12/14 06:08:48;;;;;;;28.50;17.35;;;5.70;99.90;;;;;;5061458;28;20038;-82
2023/12/14 06:11:14;;;;;;;31.35;17.27;;;5.70;99.90;;;;;;5063615;27;20050;-81
2023/12/14 06:13:41;;;;;;;36.00;19.50;;;5.70;99.90;;;;;;5065861;28;20040;-79
2023/12/14 06:16:12;;;;;;;33.85;20.58;;;5.70;99.90;;;;;;5064674;28;20028;-81
2023/12/14 06:18:41;;;;;;;29.58;17.45;;;5.70;99.90;;;;;;5063992;28;20031;-83
2023/12/14 06:21:08;;;;;;;31.02;18.48;;;5.60;99.90;;;;;;5055060;28;20028;-81
2023/12/14 06:23:36;;;;;;;34.58;18.00;;;5.60;99.90;;;;;;5072494;28;20458;-81
2023/12/14 06:26:03;;;;;;;28.88;16.92;;;5.60;99.90;;;;;;5083994;28;20032;-81
2023/12/14 06:28:30;;;;;;;25.67;14.98;;;5.60;99.90;;;;;;5079867;28;20043;-82
2023/12/14 06:30:57;;;;;;;26.73;14.43;;;5.60;99.90;;;;;;5097586;27;20035;-79
2023/12/14 06:33:23;;;;;;;27.30;15.07;;;5.60;99.90;;;;;;5080665;27;20292;-81
2023/12/14 06:35:49;;;;;;;29.35;15.65;;;5.60;99.90;;;;;;5085145;27;20032;-77
2023/12/14 06:38:16;;;;;;;26.63;14.85;;;5.60;99.90;;;;;;5070106;27;20394;-77
2023/12/14 06:40:42;;;;;;;25.67;14.45;;;5.60;99.90;;;;;;5103945;27;20358;-77
2023/12/14 06:43:09;;;;;;;27.30;15.80;;;5.60;99.90;;;;;;5085317;28;20506;-77
2023/12/14 06:45:38;;;;;;;30.73;17.30;;;5.60;99.90;;;;;;5053120;27;20027;-81
2023/12/14 06:48:05;;;;;;;34.08;17.88;;;5.60;99.90;;;;;;5096089;27;20040;-80
2023/12/14 06:50:31;;;;;;;27.90;14.35;;;5.60;99.90;;;;;;5080832;28;20059;-81
2023/12/14 06:52:58;;;;;;;27.60;14.45;;;5.60;99.90;;;;;;5063814;27;20038;-82
2023/12/14 06:55:24;;;;;;;26.65;13.30;;;5.50;99.90;;;;;;5049404;28;20050;-83
2023/12/14 06:57:50;;;;;;;20.88;11.30;;;5.50;99.90;;;;;;5047953;28;20378;-81
2023/12/14 07:00:17;;;;;;;19.50;11.93;;;5.50;99.90;;;;;;5080092;28;20413;-82
2023/12/14 07:02:44;;;;;;;16.67;10.65;;;5.50;99.90;;;;;;5047351;28;20039;-82
2023/12/14 07:05:11;;;;;;;18.42;10.98;;;5.50;99.90;;;;;;5098011;27;20034;-80
2023/12/14 07:07:37;;;;;;;18.48;10.75;;;5.50;99.90;;;;;;5079542;28;20038;-82
2023/12/14 07:10:04;;;;;;;17.77;9.93;;;5.50;99.90;;;;;;5063811;27;20036;-77
2023/12/14 07:12:30;;;;;;;20.65;12.88;;;5.50;99.90;;;;;;5078563;27;20039;-77
2023/12/14 07:14:57;;;;;;;21.77;11.65;;;5.40;99.90;;;;;;5093717;28;20028;-76
2023/12/14 07:17:23;;;;;;;19.98;10.82;;;5.40;99.90;;;;;;5058046;28;20039;-79
2023/12/14 07:19:51;;;;;;;18.17;10.50;;;5.40;99.90;;;;;;5061757;27;20056;-79
2023/12/14 07:22:18;;;;;;;16.92;10.18;;;5.40;99.90;;;;;;5061215;28;20031;-80
2023/12/14 07:24:44;;;;;;;18.83;10.80;;;5.40;99.90;;;;;;5071591;28;20042;-81
2023/12/14 07:27:10;;;;;;;18.15;10.40;;;5.40;99.90;;;;;;5060748;28;20513;-82
2023/12/14 07:29:37;;;;;;;18.83;10.35;;;5.40;99.90;;;;;;5068482;28;20043;-81
2023/12/14 07:32:03;;;;;;;15.57;8.95;;;5.30;99.90;;;;;;5075639;28;20390;-80
2023/12/14 07:34:30;;;;;;;17.27;9.85;;;5.30;99.90;;;;;;5087315;28;20039;-81
2023/12/14 07:36:56;;;;;;;14.90;9.32;;;5.30;99.90;;;;;;5078127;28;20032;-82
2023/12/14 07:39:22;;;;;;;17.75;10.85;;;5.30;99.90;;;;;;5067473;28;20036;-80
2023/12/14 07:41:49;;;;;;;15.10;8.57;;;5.30;99.90;;;;;;5085238;28;20545;-80
2023/12/14 07:44:15;;;;;;;20.20;11.10;;;5.30;99.90;;;;;;5059858;28;20510;-77
2023/12/14 07:46:43;;;;;;;22.48;14.70;;;5.30;99.90;;;;;;5082576;28;20031;-81
2023/12/14 07:49:10;;;;;;;21.98;12.52;;;5.30;99.90;;;;;;5066059;28;20390;-82
2023/12/14 07:51:36;;;;;;;17.95;11.65;;;5.30;99.90;;;;;;5051767;28;20036;-82
2023/12/14 07:54:04;;;;;;;18.33;11.60;;;5.30;99.90;;;;;;5067127;28;20121;-83
2023/12/14 07:56:34;;;;;;;15.98;10.07;;;5.30;99.90;;;;;;5073229;28;20035;-83
2023/12/14 07:59:00;;;;;;;17.83;10.50;;;5.30;99.90;;;;;;5059470;28;20169;-83
2023/12/14 08:01:27;;;;;;;15.45;9.73;;;5.30;99.90;;;;;;5063381;28;20047;-81
2023/12/14 08:03:53;;;;;;;16.80;10.32;;;5.30;99.90;;;;;;5070354;28;20062;-82
2023/12/14 08:06:19;;;;;;;16.70;10.85;;;5.30;99.90;;;;;;5071620;28;20048;-82
2023/12/14 08:08:45;;;;;;;17.02;10.20;;;5.30;99.90;;;;;;5105359;27;20103;-80
2023/12/14 08:11:12;;;;;;;15.77;9.80;;;5.30;99.90;;;;;;5094935;28;20542;-82
2023/12/14 08:13:38;;;;;;;15.70;9.88;;;5.30;99.90;;;;;;5068599;28;20433;-85
2023/12/14 08:16:05;;;;;;;11.93;8.05;;;5.30;99.90;;;;;;5084346;28;20237;-84
2023/12/14 08:18:31;;;;;;;14.90;9.05;;;5.30;99.90;;;;;;5093072;28;20028;-83
2023/12/14 08:20:57;;;;;;;12.38;8.02;;;5.30;99.90;;;;;;5088904;28;20375;-83
2023/12/14 08:23:27;;;;;;;12.70;8.05;;;5.30;99.90;;;;;;5086308;28;20051;-85
2023/12/14 08:25:56;;;;;;;15.02;10.40;;;5.40;99.90;;;;;;5091078;28;20410;-85
2023/12/14 08:28:23;;;;;;;16.42;10.15;;;5.30;99.90;;;;;;5070604;28;20409;-83
2023/12/14 08:30:50;;;;;;;14.95;9.35;;;5.30;99.90;;;;;;5095902;28;20413;-85
2023/12/14 08:33:16;;;;;;;12.52;8.30;;;5.30;99.90;;;;;;5087242;28;20039;-80
2023/12/14 08:35:43;;;;;;;15.32;9.57;;;5.30;99.90;;;;;;5075980;28;20065;-81
2023/12/14 08:38:10;;;;;;;14.32;8.23;;;5.30;99.90;;;;;;5106439;28;20046;-84
2023/12/14 08:40:37;;;;;;;15.98;9.52;;;5.30;99.90;;;;;;5090341;28;20043;-82
2023/12/14 08:43:03;;;;;;;14.88;8.27;;;5.30;99.90;;;;;;5061380;28;20048;-81
2023/12/14 08:45:30;;;;;;;17.38;10.57;;;5.30;99.90;;;;;;5078149;28;20143;-82
2023/12/14 08:47:56;;;;;;;15.00;9.85;;;5.30;99.90;;;;;;5072136;28;20028;-84
2023/12/14 08:50:22;;;;;;;12.50;8.82;;;5.30;99.90;;;;;;5096569;28;20039;-81
2023/12/14 08:52:49;;;;;;;16.95;10.40;;;5.40;99.90;;;;;;5078221;28;20032;-80
2023/12/14 08:55:15;;;;;;;17.55;10.90;;;5.30;99.90;;;;;;5081054;28;20036;-84
2023/12/14 08:57:42;;;;;;;17.50;11.10;;;5.40;99.90;;;;;;5071364;28;20051;-84
2023/12/14 09:00:09;;;;;;;15.70;9.65;;;5.40;99.90;;;;;;5098221;28;20028;-84
2023/12/14 09:02:36;;;;;;;16.40;10.50;;;5.40;99.90;;;;;;5071891;28;20042;-83
2023/12/14 09:05:04;;;;;;;13.98;9.93;;;5.40;99.90;;;;;;5082009;28;20074;-83
2023/12/14 09:07:30;;;;;;;16.40;10.02;;;5.40;99.90;;;;;;5073021;28;20035;-83
2023/12/14 09:09:57;;;;;;;13.13;8.73;;;5.40;99.90;;;;;;5092907;28;20681;-84
2023/12/14 09:12:24;;;;;;;17.42;9.32;;;5.40;99.90;;;;;;5073525;28;20031;-84
2023/12/14 09:14:50;;;;;;;13.68;8.73;;;5.50;99.90;;;;;;5074821;28;20055;-81
2023/12/14 09:17:17;;;;;;;14.18;9.18;;;5.40;99.90;;;;;;5079492;28;20024;-84
2023/12/14 09:19:43;;;;;;;15.68;9.23;;;5.50;99.90;;;;;;5075485;28;20043;-83
2023/12/14 09:22:09;;;;;;;15.10;9.93;;;5.50;99.90;;;;;;5093939;28;20038;-80
2023/12/14 09:24:36;;;;;;;15.82;9.63;;;5.50;99.90;;;;;;5081740;28;20046;-79
2023/12/14 09:27:02;;;;;;;17.77;11.23;;;5.50;99.90;;;;;;5083630;28;20374;-82
2023/12/14 09:29:28;;;;;;;19.10;11.07;;;5.50;99.90;;;;;;5072644;28;20044;-83
2023/12/14 09:31:55;;;;;;;20.25;12.00;;;5.50;99.90;;;;;;5070237;28;20028;-82
2023/12/14 09:34:21;;;;;;;19.33;11.25;;;5.50;99.90;;;;;;5075838;28;20036;-81
2023/12/14 09:36:47;;;;;;;15.85;9.48;;;5.50;99.90;;;;;;5077532;28;20035;-82
2023/12/14 09:39:15;;;;;;;18.40;10.15;;;5.50;99.90;;;;;;5075157;28;20099;-83
2023/12/14 09:41:41;;;;;;;16.98;11.02;;;5.60;99.90;;;;;;5078330;27;20040;-81
2023/12/14 09:44:08;;;;;;;17.67;10.45;;;5.60;99.90;;;;;;5072306;28;20517;-81
2023/12/14 09:46:37;;;;;;;16.17;10.98;;;5.50;99.90;;;;;;5081165;28;20032;-84
2023/12/14 09:49:04;;;;;;;15.50;11.07;;;5.60;99.90;;;;;;5073464;28;20047;-82
2023/12/14 09:51:31;;;;;;;17.95;12.00;;;5.60;99.90;;;;;;5065082;28;20032;-83
2023/12/14 09:53:57;;;;;;;20.88;12.20;;;5.60;99.90;;;;;;5074952;28;20035;-81
2023/12/14 09:56:27;;;;;;;19.33;11.15;;;5.60;99.90;;;;;;5093808;28;20020;-85
2023/12/14 09:58:54;;;;;;;21.35;12.38;;;5.60;99.90;;;;;;5072694;28;20513;-84
2023/12/14 10:01:24;;;;;;;15.85;10.57;;;5.70;99.90;;;;;;5056148;28;20039;-83
2023/12/14 10:04:06;;;;;;;19.83;12.05;;;5.70;99.90;;;;;;5098387;28;20035;-83
2023/12/14 10:06:33;;;;;;;19.00;11.15;;;5.70;99.90;;;;;;5077436;28;20300;-83
2023/12/14 10:08:59;;;;;;;18.15;11.40;;;5.70;99.90;;;;;;5074314;28;20031;-83
2023/12/14 10:11:26;;;;;;;19.17;12.00;;;5.70;99.90;;;;;;5090180;28;20036;-81
2023/12/14 10:13:52;;;;;;;17.17;10.75;;;5.70;99.90;;;;;;5093992;28;20442;-81
2023/12/14 10:16:32;;;;;;;18.27;11.13;;;5.70;99.90;;;;;;5076692;28;20038;-81
2023/12/14 10:18:59;;;;;;;18.15;10.52;;;5.80;99.90;;;;;;5068713;28;20036;-84
2023/12/14 10:21:27;;;;;;;18.27;13.07;;;5.70;99.90;;;;;;5063575;28;20040;-82
2023/12/14 10:23:57;;;;;;;18.70;11.73;;;5.70;99.90;;;;;;5069287;28;20044;-81
2023/12/14 10:26:25;;;;;;;19.13;12.18;;;5.80;99.90;;;;;;5070313;28;20039;-82
2023/12/14 10:28:54;;;;;;;18.45;10.77;;;5.80;99.90;;;;;;5081900;28;20032;-81
2023/12/14 10:31:21;;;;;;;19.63;12.15;;;5.80;99.90;;;;;;5073098;28;20028;-82
2023/12/14 10:33:48;;;;;;;21.50;13.23;;;5.80;99.90;;;;;;5063798;28;20036;-83
2023/12/14 10:36:19;;;;;;;18.23;11.32;;;5.80;99.90;;;;;;5079174;28;20391;-80
2023/12/14 10:38:48;;;;;;;19.13;11.73;;;5.80;99.90;;;;;;5073891;28;20050;-82
2023/12/14 10:41:16;;;;;;;18.40;10.85;;;5.80;99.90;;;;;;5060771;28;20028;-81
2023/12/14 10:43:43;;;;;;;21.55;12.65;;;5.80;99.90;;;;;;5059991;28;20035;-84
2023/12/14 10:46:10;;;;;;;19.63;12.65;;;5.90;99.90;;;;;;5074428;28;20039;-81
2023/12/14 10:48:37;;;;;;;19.42;12.40;;;5.80;99.90;;;;;;5077648;28;20518;-84
2023/12/14 10:51:05;;;;;;;19.02;11.80;;;5.90;99.90;;;;;;5056838;28;20042;-81
2023/12/14 10:53:33;;;;;;;22.30;12.80;;;5.90;99.90;;;;;;5093429;27;20035;-83
2023/12/14 10:56:01;;;;;;;20.92;13.07;;;5.90;99.90;;;;;;5076717;28;20028;-82
2023/12/14 10:58:28;;;;;;;17.95;11.32;;;5.90;99.90;;;;;;5108090;27;20024;-82
2023/12/14 11:01:01;;;;;;;24.90;13.70;;;5.90;99.90;;;;;;5069291;28;20545;-83
2023/12/14 11:03:33;;;;;;;24.13;12.23;;;5.90;99.90;;;;;;5088322;28;20028;-82
2023/12/14 11:06:00;;;;;;;24.27;12.27;;;5.90;99.90;;;;;;5088474;28;20050;-81
2023/12/14 11:08:27;;;;;;;23.13;12.32;;;6.00;99.90;;;;;;5068431;28;20044;-81
2023/12/14 11:10:59;;;;;;;21.13;10.93;;;6.00;99.90;;;;;;5093198;28;20039;-80
2023/12/14 11:13:31;;;;;;;18.55;10.38;;;6.00;99.90;;;;;;5082339;28;20032;-82
2023/12/14 11:15:57;;;;;;;22.73;12.02;;;6.00;99.90;;;;;;5070475;28;20035;-77
2023/12/14 11:18:25;;;;;;;24.85;13.05;;;6.10;99.90;;;;;;5097144;28;20040;-80
2023/12/14 11:21:00;;;;;;;20.48;12.05;;;6.10;99.90;;;;;;5080193;28;20024;-82
2023/12/14 11:23:32;;;;;;;21.05;13.35;;;6.10;99.90;;;;;;5044684;28;20379;-84
2023/12/14 11:26:03;;;;;;;25.02;14.60;;;6.10;99.90;;;;;;5089349;28;20066;-85
2023/12/14 11:28:43;;;;;;;24.45;13.50;;;6.10;99.90;;;;;;5076794;28;20035;-86
2023/12/14 11:31:13;;;;;;;27.65;13.55;;;6.10;99.90;;;;;;5050556;28;20036;-83
2023/12/14 11:33:39;;;;;;;21.05;12.55;;;6.10;99.90;;;;;;5076883;28;20036;-82
2023/12/14 11:36:08;;;;;;;24.85;13.55;;;6.10;99.90;;;;;;5071903;28;20043;-84
2023/12/14 11:38:35;;;;;;;21.45;14.02;;;6.10;99.90;;;;;;5108722;27;20477;-81
2023/12/14 11:41:01;;;;;;;20.00;11.25;;;6.10;99.90;;;;;;5093706;27;20027;-80
2023/12/14 11:43:28;;;;;;;20.35;12.02;;;6.10;99.90;;;;;;5059869;28;20027;-77
2023/12/14 11:45:58;;;;;;;18.15;11.43;;;6.20;99.90;;;;;;5092316;27;20474;-82
2023/12/14 11:48:24;;;;;;;17.73;10.60;;;6.20;99.90;;;;;;5077893;28;20032;-83
2023/12/14 11:50:51;;;;;;;25.90;15.18;;;6.20;99.90;;;;;;5083299;28;20024;-81
2023/12/14 11:53:18;;;;;;;23.30;12.98;;;6.20;99.90;;;;;;5054525;28;20042;-84
2023/12/14 11:55:45;;;;;;;22.77;13.60;;;6.10;99.90;;;;;;5075189;28;20047;-80
2023/12/14 11:58:15;;;;;;;25.15;14.05;;;6.10;99.90;;;;;;5087157;28;20044;-84
2023/12/14 12:00:42;;;;;;;25.08;13.65;;;6.20;99.90;;;;;;5067161;28;20024;-82
2023/12/14 12:03:15;;;;;;;22.95;12.90;;;6.10;99.90;;;;;;5075741;28;20032;-83
2023/12/14 12:05:52;;;;;;;21.40;12.50;;;6.20;99.90;;;;;;5067679;28;20034;-82
2023/12/14 12:08:20;;;;;;;18.40;11.80;;;6.20;99.90;;;;;;5090637;28;20031;-79
2023/12/14 12:10:48;;;;;;;29.30;15.10;;;6.20;99.90;;;;;;5072788;28;20028;-82
2023/12/14 12:13:20;;;;;;;23.42;15.10;;;6.20;99.90;;;;;;5067238;28;20222;-83
2023/12/14 12:15:47;;;;;;;22.85;13.48;;;6.20;99.90;;;;;;5074082;28;20023;-81
2023/12/14 12:18:17;;;;;;;21.42;13.45;;;6.30;99.90;;;;;;5086435;28;20039;-81
2023/12/14 12:20:43;;;;;;;21.75;12.18;;;6.30;99.90;;;;;;5073417;28;20047;-78
2023/12/14 12:23:10;;;;;;;17.85;11.13;;;6.40;99.90;;;;;;5068224;28;20464;-80
2023/12/14 12:25:36;;;;;;;21.10;12.95;;;6.40;99.90;;;;;;5094109;28;20039;-81
2023/12/14 12:28:06;;;;;;;20.45;13.05;;;6.40;99.90;;;;;;5085786;28;20366;-82
2023/12/14 12:30:33;;;;;;;20.02;12.07;;;6.40;99.90;;;;;;5072112;28;20588;-83
2023/12/14 12:32:59;;;;;;;18.42;10.75;;;6.50;99.90;;;;;;5081408;28;20028;-81
2023/12/14 12:35:25;;;;;;;18.42;11.85;;;6.50;99.90;;;;;;5070703;28;20028;-82
2023/12/14 12:37:55;;;;;;;19.75;12.32;;;6.50;99.90;;;;;;5054422;28;20032;-83